Date,TemperatureHighF,TemperatureAvgF,TemperatureLowF,DewpointHighF,DewpointAvgF,DewpointLowF,HumidityHigh,HumidityAvg,HumidityLow,PressureMaxIn,PressureMinIn,WindSpeedMaxMPH,WindSpeedAvgMPH,GustSpeedMaxMPH,PrecipitationSumIn
2013-9-1,83.1,78.0,71.2,74.3,72.2,68.4,91,82,72,29.74,29.68,9,1,10,0.00
2013-9-2,84.9,75.4,68.1,73.7,67.5,63.8,90,78,57,29.82,29.73,10,1,13,0.00
2013-9-3,76.8,69.4,62.9,64.0,58.2,54.3,83,69,51,29.98,29.82,11,1,12,0.00
2013-9-4,79.5,67.3,55.2,63.0,57.8,49.9,87,73,55,30.08,29.98,9,0,9,0.00
2013-9-5,83.8,70.1,58.8,66.9,60.9,53.9,87,74,51,30.12,30.05,6,0,8,0.00
2013-9-6,83.3,72.1,62.2,68.2,62.8,57.4,85,74,57,30.13,29.99,6,0,6,0.00
2013-9-7,84.7,73.2,62.0,70.1,64.2,57.1,88,75,56,30.00,29.88,9,0,11,0.00
2013-9-8,81.6,74.3,67.6,73.9,68.7,63.9,91,83,66,29.91,29.85,4,0,5,0.06
2013-9-9,89.2,77.5,66.7,74.4,69.3,62.7,89,77,58,29.94,29.85,8,0,9,0.00
2013-9-10,91.5,78.5,72.6,77.3,71.4,67.8,88,80,59,30.05,29.92,7,0,7,0.00
2013-9-11,90.3,78.7,70.5,75.7,69.7,66.4,90,76,49,30.07,29.96,14,0,14,0.00
2013-9-12,78.6,74.7,70.1,70.5,67.8,56.7,88,79,61,29.96,29.83,8,0,9,0.02
2013-9-13,69.9,63.5,54.1,56.8,51.2,46.5,81,65,50,30.02,29.90,14,2,18,0.00
2013-9-14,69.6,57.7,46.5,51.3,47.0,41.1,83,69,48,30.11,29.99,10,0,10,0.00
2013-9-15,75.0,60.8,45.3,57.6,50.0,39.8,84,69,48,30.05,29.94,6,0,8,0.00
2013-9-16,69.4,65.2,59.3,59.3,57.3,52.5,81,76,68,30.18,29.97,10,0,10,0.00
2013-9-17,74.1,62.6,52.1,58.3,53.0,47.1,86,72,52,30.20,30.05,7,0,7,0.00
2013-9-18,74.3,64.9,57.3,68.4,59.7,51.5,88,84,78,30.07,29.96,2,0,2,0.02
2013-9-19,76.8,68.7,63.1,72.6,65.4,59.7,93,89,86,30.03,29.86,6,0,8,0.88
2013-9-20,77.3,69.7,64.7,71.7,66.5,62.4,93,90,81,29.89,29.74,6,0,7,0.14
2013-9-21,69.0,62.5,55.0,65.1,55.8,49.2,92,80,54,29.82,29.70,12,1,12,0.12
2013-9-22,67.2,57.5,48.0,54.2,49.8,43.7,88,76,60,29.93,29.82,7,1,11,0.00
2013-9-23,69.6,57.3,45.6,55.4,48.8,41.1,87,74,56,30.01,29.91,7,0,7,0.00
2013-9-24,74.4,61.0,48.3,63.3,54.1,43.8,87,79,66,29.96,29.79,6,0,6,0.00
2013-9-25,76.8,66.7,58.2,66.3,59.9,54.7,89,79,64,29.83,29.77,6,0,6,0.00
2013-9-26,75.0,63.6,53.4,60.5,54.5,49.0,87,74,52,29.98,29.83,10,0,10,0.00
2013-9-27,77.0,63.4,51.4,64.1,54.2,47.0,88,74,51,30.08,29.98,6,0,6,0.00
2013-9-28,79.3,62.4,51.0,65.3,54.2,46.3,88,76,54,30.07,29.95,6,0,7,0.00